Conrad, Iowa
Current Conditions -  °F | °C
As of 12:53 AM on Sunday 21 Dec 2014 (Local Time) from KMIW Reporting Station
Moderate Fog Moderate Fog  
Wind Chill: 25°   Ceiling: 200
Heat Index: 33°   Visibility: 0.25mi
Dew Point: 33°   Wind: 10mph
Humidity: 100%   Direction: 150°SSE
Pressure: 30.07"   Gusts: NA
Location:  42.22°N, 92.87°W
Report Text: KMIW 210653Z AUTO 15009KT 1/4SM FG VV002 01/01 A3007 RMK AO2 SLP194 T00060006
Loading
Personal Weather Stations






























Interactive Weather Map New forecast layout! Learn more

10-Day Weather Forecast

Advertisements
Track Severe Weather on mobile